Time;durP1;ratioP1;P1;durP2;ratioP2;P2;SDS_P1;SDS_P2;PMS_P1;PMS_P2;Temp;Humidity;BMP_temperature;BMP_pressure;BME280_temperature;BME280_humidity;BME280_pressure;Samples;Min_cycle;Max_cycle;Signal;HPM_P1;HPM_P2
2021/12/30 00:01:28;;;;;;;0.40;0.40;;;;;;;;;;4904558;29;20036;-85
2021/12/30 00:03:56;;;;;;;1.40;0.50;;;;;;;;;;4920343;29;20104;-87
2021/12/30 00:06:23;;;;;;;0.45;0.45;;;;;;;;;;4919238;29;20016;-88
2021/12/30 00:08:53;;;;;;;0.75;0.50;;;;;;;;;;4928159;29;20495;-88
2021/12/30 00:11:19;;;;;;;0.77;0.70;;;;;;;;;;4905673;29;20033;-86
2021/12/30 00:13:45;;;;;;;2.40;0.50;;;;;;;;;;4907491;29;20428;-85
2021/12/30 00:16:16;;;;;;;0.50;0.50;;;;;;;;;;4930160;29;20020;-85
2021/12/30 00:18:54;;;;;;;1.00;0.50;;;;;;;;;;4918768;29;20075;-85
2021/12/30 00:21:23;;;;;;;0.50;0.50;;;;;;;;;;4900539;29;20102;-84
2021/12/30 00:23:49;;;;;;;0.73;0.70;;;;;;;;;;4932459;29;20043;-88
2021/12/30 00:26:14;;;;;;;1.77;0.93;;;;;;;;;;4895310;29;20032;-88
2021/12/30 00:28:40;;;;;;;2.45;0.70;;;;;;;;;;4913230;29;20027;-86
2021/12/30 00:31:38;;;;;;;3.22;1.00;;;;;;;;;;4906447;29;20521;-88
2021/12/30 00:34:09;;;;;;;0.57;0.57;;;;;;;;;;4904371;29;20032;-86
2021/12/30 00:36:47;;;;;;;0.73;0.70;;;;;;;;;;4921527;29;20032;-87
2021/12/30 00:40:01;;;;;;;3.90;1.10;;;;;;;;;;4912044;29;20167;-88
2021/12/30 00:42:39;;;;;;;0.90;0.90;;;;;;;;;;4836941;29;20046;-85
2021/12/30 00:45:08;;;;;;;1.80;0.80;;;;;;;;;;4845511;29;20057;-87
2021/12/30 00:48:03;;;;;;;1.08;0.90;;;;;;;;;;4859103;29;20120;-87
2021/12/30 00:50:30;;;;;;;0.55;0.55;;;;;;;;;;4845579;29;20030;-86
2021/12/30 00:53:02;;;;;;;1.33;0.70;;;;;;;;;;4854898;29;20050;-85
2021/12/30 00:55:43;;;;;;;1.23;0.77;;;;;;;;;;4889900;29;20024;-84
2021/12/30 00:58:23;;;;;;;4.40;1.23;;;;;;;;;;4898879;29;21280;-85
2021/12/30 01:00:51;;;;;;;0.93;0.73;;;;;;;;;;4909562;29;20033;-85
2021/12/30 01:03:48;;;;;;;1.13;0.80;;;;;;;;;;4900020;29;20020;-84
2021/12/30 01:06:14;;;;;;;0.63;0.60;;;;;;;;;;4906002;29;20035;-85
2021/12/30 01:08:40;;;;;;;1.65;1.08;;;;;;;;;;4898280;29;20107;-86
2021/12/30 01:11:08;;;;;;;2.72;0.90;;;;;;;;;;4905632;29;20036;-87
2021/12/30 01:14:01;;;;;;;2.72;0.90;;;;;;;;;;4916722;29;20028;-86
2021/12/30 01:16:29;;;;;;;1.05;0.95;;;;;;;;;;4901127;29;20041;-85
2021/12/30 01:19:00;;;;;;;0.77;0.73;;;;;;;;;;4914279;29;20479;-88
2021/12/30 01:21:29;;;;;;;2.30;0.75;;;;;;;;;;4895518;29;20093;-88
2021/12/30 01:23:55;;;;;;;2.65;0.95;;;;;;;;;;4914947;29;20035;-87
2021/12/30 01:26:21;;;;;;;1.17;0.75;;;;;;;;;;4911233;29;20028;-87
2021/12/30 01:28:48;;;;;;;0.63;0.63;;;;;;;;;;4890810;29;20082;-88
2021/12/30 01:31:14;;;;;;;5.10;1.00;;;;;;;;;;4909673;29;20444;-87
2021/12/30 01:33:42;;;;;;;0.88;0.88;;;;;;;;;;4916585;29;20029;-87
2021/12/30 01:36:08;;;;;;;2.65;1.00;;;;;;;;;;4921157;29;20024;-87
2021/12/30 01:38:33;;;;;;;0.95;0.85;;;;;;;;;;4900503;29;20506;-87
2021/12/30 01:41:01;;;;;;;0.88;0.65;;;;;;;;;;4936563;29;20050;-88
2021/12/30 01:43:28;;;;;;;1.20;0.70;;;;;;;;;;4892437;29;20033;-87
2021/12/30 01:45:53;;;;;;;2.80;1.20;;;;;;;;;;4919089;29;20027;-88
2021/12/30 01:48:20;;;;;;;1.77;0.70;;;;;;;;;;4906145;29;20020;-88
2021/12/30 01:50:47;;;;;;;1.95;0.88;;;;;;;;;;4907584;29;20038;-86
2021/12/30 01:53:13;;;;;;;0.85;0.85;;;;;;;;;;4908470;29;20023;-86
2021/12/30 01:55:40;;;;;;;5.22;1.50;;;;;;;;;;4908588;29;20117;-88
2021/12/30 01:58:07;;;;;;;1.80;1.13;;;;;;;;;;4913405;29;20051;-88
2021/12/30 02:00:34;;;;;;;3.10;0.98;;;;;;;;;;4909463;29;20017;-87
2021/12/30 02:03:00;;;;;;;2.35;0.80;;;;;;;;;;4932185;29;20032;-88
2021/12/30 02:05:26;;;;;;;2.05;1.10;;;;;;;;;;4921734;29;20032;-89
2021/12/30 02:07:52;;;;;;;1.77;0.93;;;;;;;;;;4913787;29;20088;-86
2021/12/30 02:10:17;;;;;;;0.93;0.70;;;;;;;;;;4915592;29;20032;-85
2021/12/30 02:12:46;;;;;;;1.50;0.75;;;;;;;;;;4905887;29;20031;-88
2021/12/30 02:15:13;;;;;;;1.83;1.00;;;;;;;;;;4920725;29;20467;-87
2021/12/30 02:17:39;;;;;;;2.88;0.90;;;;;;;;;;4891916;29;20034;-86
2021/12/30 02:20:09;;;;;;;2.58;0.90;;;;;;;;;;4887781;29;20032;-87
2021/12/30 02:22:35;;;;;;;0.60;0.60;;;;;;;;;;4918203;29;20024;-87
2021/12/30 02:25:03;;;;;;;2.80;0.75;;;;;;;;;;4916672;29;20039;-85
2021/12/30 02:27:29;;;;;;;1.15;0.80;;;;;;;;;;4904368;29;20032;-87
2021/12/30 02:29:54;;;;;;;3.13;1.13;;;;;;;;;;4897962;29;20048;-86
2021/12/30 02:32:21;;;;;;;1.05;0.80;;;;;;;;;;4908583;29;20035;-87
2021/12/30 02:34:48;;;;;;;3.22;0.93;;;;;;;;;;4919341;29;20036;-87
2021/12/30 02:37:19;;;;;;;1.95;1.17;;;;;;;;;;4921316;29;20016;-85
2021/12/30 02:39:51;;;;;;;3.53;0.90;;;;;;;;;;4918817;29;20032;-86
2021/12/30 02:42:16;;;;;;;0.93;0.77;;;;;;;;;;4912098;29;20025;-86
2021/12/30 02:44:41;;;;;;;0.93;0.77;;;;;;;;;;4905487;29;20039;-87
2021/12/30 02:47:07;;;;;;;0.98;0.70;;;;;;;;;;4888337;29;20029;-87
2021/12/30 02:49:32;;;;;;;2.95;1.00;;;;;;;;;;4904887;29;20068;-86
2021/12/30 02:51:57;;;;;;;1.80;0.82;;;;;;;;;;4916654;29;20044;-83
2021/12/30 02:54:23;;;;;;;2.15;0.80;;;;;;;;;;4918798;29;20080;-85
2021/12/30 02:56:49;;;;;;;1.30;0.85;;;;;;;;;;4889119;29;20483;-86
2021/12/30 02:59:17;;;;;;;3.92;1.58;;;;;;;;;;4912548;29;20034;-86
2021/12/30 03:01:43;;;;;;;1.65;0.60;;;;;;;;;;4925115;29;20036;-86
2021/12/30 03:04:10;;;;;;;2.10;0.82;;;;;;;;;;4898891;29;20463;-86
2021/12/30 03:06:36;;;;;;;0.93;0.77;;;;;;;;;;4906609;29;20074;-87
2021/12/30 03:09:03;;;;;;;3.00;1.05;;;;;;;;;;4917258;29;20495;-85
2021/12/30 03:11:29;;;;;;;3.17;0.80;;;;;;;;;;4922489;29;20051;-86
2021/12/30 03:13:55;;;;;;;1.33;0.70;;;;;;;;;;4907358;29;20040;-86
2021/12/30 03:16:24;;;;;;;3.30;0.93;;;;;;;;;;4898298;29;20023;-86
2021/12/30 03:18:50;;;;;;;0.85;0.70;;;;;;;;;;4923630;29;20119;-85
2021/12/30 03:21:19;;;;;;;1.70;0.65;;;;;;;;;;4921186;29;20081;-86
2021/12/30 03:23:45;;;;;;;1.85;0.98;;;;;;;;;;4906948;29;20080;-86
2021/12/30 03:26:11;;;;;;;0.80;0.65;;;;;;;;;;4915448;29;20024;-85
2021/12/30 03:28:39;;;;;;;0.80;0.50;;;;;;;;;;4902437;29;20028;-86
2021/12/30 03:31:06;;;;;;;0.70;0.70;;;;;;;;;;4896620;29;20028;-85
2021/12/30 03:33:31;;;;;;;1.35;0.80;;;;;;;;;;4919024;29;20108;-86
2021/12/30 03:36:01;;;;;;;1.02;0.55;;;;;;;;;;4905776;29;20055;-85
2021/12/30 03:38:29;;;;;;;0.73;0.52;;;;;;;;;;4920198;29;20024;-87
2021/12/30 03:40:54;;;;;;;0.95;0.32;;;;;;;;;;4909264;29;20047;-86
2021/12/30 03:43:20;;;;;;;1.17;0.65;;;;;;;;;;4905841;29;20036;-88
2021/12/30 03:45:45;;;;;;;0.88;0.50;;;;;;;;;;4913843;29;20040;-86
2021/12/30 03:48:11;;;;;;;1.00;0.57;;;;;;;;;;4915476;29;20027;-87
2021/12/30 03:50:43;;;;;;;2.78;0.70;;;;;;;;;;4891036;29;20395;-86
2021/12/30 03:53:10;;;;;;;0.60;0.52;;;;;;;;;;4892754;29;21482;-86
2021/12/30 03:55:36;;;;;;;2.80;0.63;;;;;;;;;;4903027;29;20200;-85
2021/12/30 03:58:01;;;;;;;2.22;0.65;;;;;;;;;;4907449;29;20028;-86
2021/12/30 04:00:27;;;;;;;0.70;0.70;;;;;;;;;;4893574;29;20072;-86
2021/12/30 04:02:53;;;;;;;3.20;0.85;;;;;;;;;;4921747;29;20036;-86
2021/12/30 04:05:20;;;;;;;0.63;0.63;;;;;;;;;;4907166;29;20030;-86
2021/12/30 04:07:46;;;;;;;2.00;0.60;;;;;;;;;;4925417;29;20032;-85
2021/12/30 04:10:13;;;;;;;1.65;0.60;;;;;;;;;;4917862;29;20024;-86
2021/12/30 04:12:40;;;;;;;0.50;0.40;;;;;;;;;;4911595;29;20087;-86
2021/12/30 04:15:07;;;;;;;1.83;0.43;;;;;;;;;;4909784;29;20072;-84
2021/12/30 04:17:32;;;;;;;0.85;0.55;;;;;;;;;;4905657;29;20422;-85
2021/12/30 04:19:57;;;;;;;0.80;0.55;;;;;;;;;;4915348;29;20059;-85
2021/12/30 04:22:23;;;;;;;1.50;0.70;;;;;;;;;;4932353;29;20059;-85
2021/12/30 04:24:49;;;;;;;0.30;0.30;;;;;;;;;;4903999;29;20028;-84
2021/12/30 04:27:15;;;;;;;0.55;0.52;;;;;;;;;;4904618;29;20436;-85
2021/12/30 04:29:40;;;;;;;1.08;0.65;;;;;;;;;;4895494;29;20075;-85
2021/12/30 04:32:06;;;;;;;0.60;0.52;;;;;;;;;;4919647;29;20028;-85
2021/12/30 04:34:31;;;;;;;0.80;0.70;;;;;;;;;;4922578;29;20024;-86
2021/12/30 04:36:59;;;;;;;0.75;0.60;;;;;;;;;;4904398;29;20020;-84
2021/12/30 04:39:29;;;;;;;3.28;0.70;;;;;;;;;;4905842;29;20023;-86
2021/12/30 04:41:58;;;;;;;0.65;0.50;;;;;;;;;;4922384;29;20028;-84
2021/12/30 04:44:25;;;;;;;0.85;0.52;;;;;;;;;;4905511;29;20056;-84
2021/12/30 04:46:50;;;;;;;0.35;0.35;;;;;;;;;;4922973;29;20055;-84
2021/12/30 04:49:16;;;;;;;1.73;0.80;;;;;;;;;;4922648;29;20039;-86
2021/12/30 04:51:41;;;;;;;1.35;0.47;;;;;;;;;;4917154;29;20648;-85
2021/12/30 04:54:06;;;;;;;0.57;0.50;;;;;;;;;;4911171;29;20394;-85
2021/12/30 04:56:32;;;;;;;1.67;0.70;;;;;;;;;;4907061;29;20165;-85
2021/12/30 04:58:57;;;;;;;2.58;0.50;;;;;;;;;;4907670;29;20394;-85
2021/12/30 05:01:23;;;;;;;1.17;0.60;;;;;;;;;;4908248;29;20088;-85
2021/12/30 05:03:48;;;;;;;0.47;0.47;;;;;;;;;;4887060;29;20032;-85
2021/12/30 05:06:13;;;;;;;1.50;0.40;;;;;;;;;;4923227;29;20028;-85
2021/12/30 05:08:39;;;;;;;1.58;0.98;;;;;;;;;;4917604;29;20028;-85
2021/12/30 05:11:05;;;;;;;3.22;0.40;;;;;;;;;;4923265;29;20035;-85
2021/12/30 05:13:30;;;;;;;1.15;0.70;;;;;;;;;;4923303;29;20028;-85
2021/12/30 05:15:56;;;;;;;0.38;0.38;;;;;;;;;;4917364;29;20031;-86
2021/12/30 05:18:29;;;;;;;0.40;0.40;;;;;;;;;;4907541;29;20100;-85
2021/12/30 05:20:55;;;;;;;0.40;0.40;;;;;;;;;;4922370;29;20035;-85
2021/12/30 05:23:20;;;;;;;0.40;0.40;;;;;;;;;;4888238;29;20032;-85
2021/12/30 05:25:46;;;;;;;1.75;0.40;;;;;;;;;;4888299;29;20040;-85
2021/12/30 05:28:11;;;;;;;1.08;0.55;;;;;;;;;;4921307;29;20039;-85
2021/12/30 05:30:36;;;;;;;0.95;0.47;;;;;;;;;;4907211;29;20028;-85
2021/12/30 05:33:02;;;;;;;0.25;0.25;;;;;;;;;;4920809;29;20384;-85
2021/12/30 05:35:28;;;;;;;2.17;0.50;;;;;;;;;;4910650;29;20040;-85
2021/12/30 05:37:54;;;;;;;0.52;0.30;;;;;;;;;;4905680;29;20035;-85
2021/12/30 05:40:22;;;;;;;1.30;0.30;;;;;;;;;;4900444;29;20509;-85
2021/12/30 05:42:48;;;;;;;0.75;0.47;;;;;;;;;;4905916;29;20051;-85
2021/12/30 05:45:14;;;;;;;0.65;0.40;;;;;;;;;;4919547;29;20024;-84
2021/12/30 05:47:41;;;;;;;0.40;0.40;;;;;;;;;;4920841;29;20506;-84
2021/12/30 05:50:09;;;;;;;0.57;0.38;;;;;;;;;;4906164;29;20065;-84
2021/12/30 05:52:36;;;;;;;0.30;0.30;;;;;;;;;;4924096;29;20063;-83
2021/12/30 05:55:03;;;;;;;0.30;0.30;;;;;;;;;;4909085;29;20035;-84
2021/12/30 05:57:29;;;;;;;1.27;0.30;;;;;;;;;;4914914;29;20024;-84
2021/12/30 05:59:55;;;;;;;1.98;0.43;;;;;;;;;;4925842;29;20032;-85
2021/12/30 06:02:20;;;;;;;0.20;0.20;;;;;;;;;;4923833;29;20063;-86
2021/12/30 06:04:45;;;;;;;0.30;0.30;;;;;;;;;;4907625;29;20039;-85
2021/12/30 06:07:11;;;;;;;0.40;0.40;;;;;;;;;;4905837;29;20038;-85
2021/12/30 06:09:37;;;;;;;0.25;0.25;;;;;;;;;;4913812;29;20065;-86
2021/12/30 06:12:02;;;;;;;0.40;0.40;;;;;;;;;;4906995;29;20044;-86
2021/12/30 06:14:28;;;;;;;1.15;0.40;;;;;;;;;;4890152;29;20039;-86
2021/12/30 06:16:53;;;;;;;0.75;0.40;;;;;;;;;;4909099;29;20032;-86
2021/12/30 06:19:19;;;;;;;1.67;0.47;;;;;;;;;;4893009;29;20032;-86
2021/12/30 06:21:44;;;;;;;2.55;0.40;;;;;;;;;;4920574;29;20120;-86
2021/12/30 06:24:10;;;;;;;1.80;0.70;;;;;;;;;;4909485;29;20032;-87
2021/12/30 06:26:35;;;;;;;0.38;0.30;;;;;;;;;;4922157;29;20039;-87
2021/12/30 06:29:00;;;;;;;0.82;0.30;;;;;;;;;;4910665;29;20084;-88
2021/12/30 06:31:26;;;;;;;0.85;0.20;;;;;;;;;;4918144;29;20428;-86
2021/12/30 06:33:51;;;;;;;3.10;0.40;;;;;;;;;;4910662;29;20020;-87
2021/12/30 06:36:17;;;;;;;0.75;0.40;;;;;;;;;;4916119;29;20035;-87
2021/12/30 06:38:43;;;;;;;1.20;0.38;;;;;;;;;;4921159;29;20021;-88
2021/12/30 06:41:09;;;;;;;0.30;0.30;;;;;;;;;;4927202;29;20028;-87
2021/12/30 06:43:35;;;;;;;0.30;0.30;;;;;;;;;;4925898;29;20024;-87
2021/12/30 06:46:04;;;;;;;0.75;0.30;;;;;;;;;;4917436;29;20025;-86
2021/12/30 06:48:29;;;;;;;0.73;0.30;;;;;;;;;;4922004;29;20386;-87
2021/12/30 06:50:56;;;;;;;0.32;0.32;;;;;;;;;;4907449;29;20025;-87
2021/12/30 06:53:23;;;;;;;0.20;0.20;;;;;;;;;;4921179;29;20052;-86
2021/12/30 06:55:50;;;;;;;0.40;0.38;;;;;;;;;;4923055;29;20020;-86
2021/12/30 06:58:17;;;;;;;1.30;0.30;;;;;;;;;;4935101;29;20039;-87
2021/12/30 07:00:43;;;;;;;0.30;0.20;;;;;;;;;;4921780;29;20048;-87
2021/12/30 07:03:08;;;;;;;1.02;0.57;;;;;;;;;;4918252;29;20043;-86
2021/12/30 07:05:34;;;;;;;0.30;0.30;;;;;;;;;;4925555;29;20387;-87
2021/12/30 07:08:00;;;;;;;0.60;0.50;;;;;;;;;;4908663;29;20047;-87
2021/12/30 07:10:26;;;;;;;0.28;0.28;;;;;;;;;;4931112;29;20024;-88
2021/12/30 07:12:52;;;;;;;0.52;0.25;;;;;;;;;;4922221;29;20083;-88
2021/12/30 07:15:18;;;;;;;1.80;0.30;;;;;;;;;;4890391;29;20506;-87
2021/12/30 07:17:43;;;;;;;2.67;0.40;;;;;;;;;;4894089;29;20095;-87
2021/12/30 07:20:10;;;;;;;1.27;0.40;;;;;;;;;;4925125;29;20044;-87
2021/12/30 07:22:36;;;;;;;2.38;0.40;;;;;;;;;;4926062;29;20489;-89
2021/12/30 07:25:02;;;;;;;1.63;0.35;;;;;;;;;;4920736;29;20036;-87
2021/12/30 07:27:27;;;;;;;0.75;0.35;;;;;;;;;;4896250;29;20032;-89
2021/12/30 07:29:53;;;;;;;0.38;0.38;;;;;;;;;;4917212;29;20039;-87
2021/12/30 07:32:18;;;;;;;0.85;0.40;;;;;;;;;;4922285;29;20024;-89
2021/12/30 07:34:44;;;;;;;1.20;0.30;;;;;;;;;;4929346;29;20020;-88
2021/12/30 07:37:14;;;;;;;1.67;0.40;;;;;;;;;;4925574;29;20024;-88
2021/12/30 07:39:39;;;;;;;0.30;0.30;;;;;;;;;;4940287;29;20043;-88
2021/12/30 07:42:05;;;;;;;1.17;0.38;;;;;;;;;;4924046;29;20024;-87
2021/12/30 07:44:30;;;;;;;1.52;0.30;;;;;;;;;;4902672;29;20024;-88
2021/12/30 07:46:55;;;;;;;1.75;0.55;;;;;;;;;;4907163;29;20052;-88
2021/12/30 07:49:21;;;;;;;1.95;0.30;;;;;;;;;;4889898;29;20032;-88
2021/12/30 07:51:46;;;;;;;0.90;0.75;;;;;;;;;;4889552;29;20081;-87
2021/12/30 07:54:11;;;;;;;2.13;0.40;;;;;;;;;;4906211;29;20404;-87
2021/12/30 07:56:37;;;;;;;1.85;0.60;;;;;;;;;;4902200;29;20383;-87
2021/12/30 07:59:02;;;;;;;1.15;0.45;;;;;;;;;;4902636;29;20076;-87
2021/12/30 08:01:28;;;;;;;0.30;0.30;;;;;;;;;;4909231;29;20032;-87
2021/12/30 08:03:53;;;;;;;0.43;0.38;;;;;;;;;;4913532;29;20024;-89
2021/12/30 08:06:19;;;;;;;2.60;0.50;;;;;;;;;;4922016;29;20113;-86
2021/12/30 08:08:44;;;;;;;0.70;0.22;;;;;;;;;;4896948;29;20402;-88
2021/12/30 08:11:10;;;;;;;1.17;0.47;;;;;;;;;;4912522;29;20028;-87
2021/12/30 08:13:36;;;;;;;0.28;0.28;;;;;;;;;;4919675;29;20471;-86
2021/12/30 08:16:01;;;;;;;1.45;0.40;;;;;;;;;;4921626;29;20035;-86
2021/12/30 08:18:26;;;;;;;2.67;0.70;;;;;;;;;;4924729;29;20027;-88
2021/12/30 08:20:52;;;;;;;0.60;0.40;;;;;;;;;;4907222;29;20029;-86
2021/12/30 08:23:18;;;;;;;0.20;0.20;;;;;;;;;;4907709;29;20020;-86
2021/12/30 08:25:49;;;;;;;0.43;0.43;;;;;;;;;;4923657;29;20082;-87
2021/12/30 08:28:14;;;;;;;0.75;0.75;;;;;;;;;;4907443;29;20028;-85
2021/12/30 08:30:40;;;;;;;0.52;0.40;;;;;;;;;;4905584;29;20027;-87
2021/12/30 08:33:05;;;;;;;1.05;0.50;;;;;;;;;;4923983;29;20051;-87
2021/12/30 08:35:31;;;;;;;2.88;0.55;;;;;;;;;;4920477;29;20079;-88
2021/12/30 08:37:56;;;;;;;0.30;0.20;;;;;;;;;;4923022;29;20040;-89
2021/12/30 08:40:22;;;;;;;0.40;0.40;;;;;;;;;;4916562;29;20087;-88
2021/12/30 08:42:47;;;;;;;0.40;0.30;;;;;;;;;;4899207;29;20033;-87
2021/12/30 08:45:14;;;;;;;1.13;0.40;;;;;;;;;;4923682;29;20035;-88
2021/12/30 08:47:40;;;;;;;1.35;0.45;;;;;;;;;;4923553;29;20032;-86
2021/12/30 08:50:08;;;;;;;2.03;0.40;;;;;;;;;;4916766;29;20163;-87
2021/12/30 08:52:34;;;;;;;0.20;0.20;;;;;;;;;;4924180;29;20028;-88
2021/12/30 08:55:00;;;;;;;0.40;0.40;;;;;;;;;;4924742;29;20031;-88
2021/12/30 08:57:26;;;;;;;0.85;0.22;;;;;;;;;;4923874;29;20047;-87
2021/12/30 08:59:52;;;;;;;2.10;0.50;;;;;;;;;;4903632;29;20024;-87
2021/12/30 09:02:17;;;;;;;1.38;0.40;;;;;;;;;;4906644;29;20040;-88
2021/12/30 09:04:46;;;;;;;1.48;0.30;;;;;;;;;;4915098;29;20024;-87
2021/12/30 09:07:13;;;;;;;1.48;0.32;;;;;;;;;;4899241;29;20028;-87
2021/12/30 09:09:39;;;;;;;1.55;0.30;;;;;;;;;;4914773;29;20023;-86
2021/12/30 09:12:05;;;;;;;0.90;0.38;;;;;;;;;;4896166;29;20504;-87
2021/12/30 09:14:31;;;;;;;0.28;0.28;;;;;;;;;;4915400;29;20024;-86
2021/12/30 09:16:56;;;;;;;0.40;0.30;;;;;;;;;;4928683;29;20024;-88
2021/12/30 09:19:21;;;;;;;0.45;0.30;;;;;;;;;;4906404;29;20394;-88
2021/12/30 09:21:47;;;;;;;0.88;0.30;;;;;;;;;;4908280;29;20489;-88
2021/12/30 09:24:12;;;;;;;0.30;0.30;;;;;;;;;;4916994;29;20082;-86
2021/12/30 09:26:39;;;;;;;2.03;0.30;;;;;;;;;;4911193;29;20395;-87
2021/12/30 09:29:10;;;;;;;1.48;0.50;;;;;;;;;;4923865;29;20024;-87
2021/12/30 09:31:47;;;;;;;0.53;0.50;;;;;;;;;;4912519;29;20589;-86
2021/12/30 09:34:13;;;;;;;0.40;0.40;;;;;;;;;;4902864;29;20275;-85
2021/12/30 09:36:39;;;;;;;0.57;0.47;;;;;;;;;;4922525;29;20028;-86
2021/12/30 09:39:07;;;;;;;0.28;0.28;;;;;;;;;;4912955;29;20025;-86
2021/12/30 09:41:34;;;;;;;0.70;0.40;;;;;;;;;;4905016;29;20043;-87
2021/12/30 09:43:59;;;;;;;0.95;0.38;;;;;;;;;;4904458;29;20103;-87
2021/12/30 09:46:25;;;;;;;1.23;0.50;;;;;;;;;;4902748;29;20420;-86
2021/12/30 09:48:50;;;;;;;0.30;0.30;;;;;;;;;;4884891;29;20039;-86
2021/12/30 09:51:16;;;;;;;0.80;0.35;;;;;;;;;;4923405;29;20072;-87
2021/12/30 09:53:41;;;;;;;0.90;0.35;;;;;;;;;;4901566;29;20080;-85
2021/12/30 09:56:06;;;;;;;0.70;0.70;;;;;;;;;;4902861;29;20037;-86
2021/12/30 09:58:32;;;;;;;0.47;0.47;;;;;;;;;;4901717;29;20016;-86
2021/12/30 10:00:59;;;;;;;0.82;0.57;;;;;;;;;;4903642;29;20021;-85
2021/12/30 10:03:24;;;;;;;0.30;0.30;;;;;;;;;;4915023;29;20036;-87
2021/12/30 10:05:50;;;;;;;0.93;0.60;;;;;;;;;;4905421;29;20474;-87
2021/12/30 10:08:21;;;;;;;0.40;0.35;;;;;;;;;;4902054;29;20024;-87
2021/12/30 10:10:49;;;;;;;0.30;0.30;;;;;;;;;;4905046;29;20057;-87
2021/12/30 10:13:33;;;;;;;0.60;0.60;;;;;;;;;;4897437;29;20035;-87
2021/12/30 10:16:05;;;;;;;1.70;0.40;;;;;;;;;;4922561;29;20200;-86
2021/12/30 10:18:46;;;;;;;2.90;1.15;;;;;;;;;;4922666;29;20022;-87
2021/12/30 10:21:15;;;;;;;2.80;0.53;;;;;;;;;;4906135;29;20028;-87
2021/12/30 10:23:45;;;;;;;0.50;0.50;;;;;;;;;;4914185;29;20344;-86
2021/12/30 10:26:11;;;;;;;0.52;0.30;;;;;;;;;;4937596;29;20024;-86
2021/12/30 10:28:39;;;;;;;0.50;0.50;;;;;;;;;;4915721;29;20420;-87
2021/12/30 10:31:11;;;;;;;0.40;0.40;;;;;;;;;;4915230;29;20092;-85
2021/12/30 10:33:45;;;;;;;0.60;0.57;;;;;;;;;;4912284;29;20052;-85
2021/12/30 10:36:20;;;;;;;0.30;0.28;;;;;;;;;;4919194;29;20062;-85
2021/12/30 10:38:46;;;;;;;0.68;0.57;;;;;;;;;;4911443;29;20059;-86
2021/12/30 10:41:12;;;;;;;0.80;0.50;;;;;;;;;;4904136;29;20033;-86
2021/12/30 10:46:23;;;;;;;1.40;0.60;;;;;;;;;;4914363;29;20024;-86
2021/12/30 10:49:00;;;;;;;1.42;0.60;;;;;;;;;;4915310;29;20514;-87
2021/12/30 10:51:41;;;;;;;1.85;0.52;;;;;;;;;;4895323;29;20019;-87
2021/12/30 10:54:17;;;;;;;0.50;0.50;;;;;;;;;;4910881;29;20025;-86
2021/12/30 10:56:46;;;;;;;1.10;0.65;;;;;;;;;;4910107;29;20475;-87
2021/12/30 10:59:21;;;;;;;0.55;0.55;;;;;;;;;;4899937;29;20082;-87
2021/12/30 11:01:54;;;;;;;0.32;0.32;;;;;;;;;;4914373;29;20024;-87
2021/12/30 11:04:20;;;;;;;0.40;0.40;;;;;;;;;;4903622;29;20024;-88
2021/12/30 11:06:46;;;;;;;1.02;0.32;;;;;;;;;;4921219;29;20032;-88
2021/12/30 11:09:20;;;;;;;0.50;0.30;;;;;;;;;;4907704;29;20028;-88
2021/12/30 11:11:51;;;;;;;1.95;0.40;;;;;;;;;;4915447;29;20039;-88
2021/12/30 11:14:20;;;;;;;0.27;0.27;;;;;;;;;;4910994;29;20032;-88
2021/12/30 11:17:21;;;;;;;0.40;0.25;;;;;;;;;;4912378;29;20078;-85
2021/12/30 11:19:52;;;;;;;0.20;0.20;;;;;;;;;;4914153;29;20436;-85
2021/12/30 11:22:23;;;;;;;0.28;0.28;;;;;;;;;;4921852;29;20328;-84
2021/12/30 11:24:50;;;;;;;0.40;0.40;;;;;;;;;;4911226;29;20032;-87
2021/12/30 11:27:17;;;;;;;1.00;0.60;;;;;;;;;;4937955;29;20021;-87
2021/12/30 11:29:46;;;;;;;0.70;0.52;;;;;;;;;;4925306;29;20028;-88
2021/12/30 11:32:20;;;;;;;0.30;0.30;;;;;;;;;;4912188;29;20447;-87
2021/12/30 11:34:47;;;;;;;0.57;0.30;;;;;;;;;;4900626;29;20056;-87
2021/12/30 11:37:15;;;;;;;0.30;0.30;;;;;;;;;;4927642;29;20039;-86
2021/12/30 11:39:47;;;;;;;0.38;0.38;;;;;;;;;;4916821;29;20052;-87
2021/12/30 11:42:21;;;;;;;0.20;0.20;;;;;;;;;;4890375;29;20028;-87
2021/12/30 11:44:54;;;;;;;3.08;1.83;;;;;;;;;;4928236;29;20044;-86
2021/12/30 11:53:23;;;;;;;1.08;0.98;;;;;;;;;;4947534;23;20055;-87
2021/12/30 11:55:58;;;;;;;0.43;0.43;;;;;;;;;;4900412;29;20039;-87
2021/12/30 12:01:10;;;;;;;0.20;0.20;;;;;;;;;;4928732;29;20032;-86
2021/12/30 12:03:53;;;;;;;0.20;0.20;;;;;;;;;;4912792;29;20028;-84
2021/12/30 12:06:25;;;;;;;0.20;0.20;;;;;;;;;;4930374;29;20012;-85
2021/12/30 12:09:19;;;;;;;0.17;0.17;;;;;;;;;;4929824;29;20031;-85
2021/12/30 12:12:03;;;;;;;2.72;0.20;;;;;;;;;;4921848;29;20040;-84
2021/12/30 12:14:32;;;;;;;0.22;0.22;;;;;;;;;;4942777;29;20034;-84
2021/12/30 12:17:07;;;;;;;0.20;0.20;;;;;;;;;;4947746;29;20585;-87
2021/12/30 12:19:41;;;;;;;0.35;0.30;;;;;;;;;;4933312;29;20032;-85
2021/12/30 12:22:19;;;;;;;2.05;0.20;;;;;;;;;;4929477;29;20031;-85
2021/12/30 12:24:50;;;;;;;0.30;0.30;;;;;;;;;;4918661;29;20038;-86
2021/12/30 12:27:18;;;;;;;0.25;0.25;;;;;;;;;;4940249;29;20024;-85
2021/12/30 12:29:50;;;;;;;0.20;0.20;;;;;;;;;;4919030;29;20051;-85
2021/12/30 12:32:39;;;;;;;0.55;0.20;;;;;;;;;;4936151;29;20048;-85
2021/12/30 12:35:25;;;;;;;0.20;0.20;;;;;;;;;;4942099;29;20539;-85
2021/12/30 12:37:56;;;;;;;0.60;0.22;;;;;;;;;;4941324;29;20048;-85
2021/12/30 12:40:24;;;;;;;0.10;0.10;;;;;;;;;;4931078;29;20427;-85
2021/12/30 12:42:50;;;;;;;0.68;0.40;;;;;;;;;;4946965;29;20035;-84
2021/12/30 12:45:20;;;;;;;0.30;0.10;;;;;;;;;;4927724;29;20039;-86
2021/12/30 12:47:47;;;;;;;0.28;0.28;;;;;;;;;;4933785;29;20111;-85
2021/12/30 12:50:13;;;;;;;0.10;0.10;;;;;;;;;;4928335;29;20024;-85
2021/12/30 12:52:47;;;;;;;0.20;0.20;;;;;;;;;;4928738;29;20083;-86
2021/12/30 12:55:17;;;;;;;0.28;0.28;;;;;;;;;;4943313;29;20020;-85
2021/12/30 12:57:43;;;;;;;0.30;0.30;;;;;;;;;;4929431;29;20026;-86
2021/12/30 13:00:10;;;;;;;0.30;0.30;;;;;;;;;;4939130;29;20472;-86
2021/12/30 13:02:36;;;;;;;0.20;0.20;;;;;;;;;;4942208;29;20039;-86
2021/12/30 13:05:11;;;;;;;0.28;0.28;;;;;;;;;;4924354;29;20084;-85
2021/12/30 13:07:36;;;;;;;2.10;0.30;;;;;;;;;;4922425;29;20840;-85
2021/12/30 13:10:03;;;;;;;0.17;0.17;;;;;;;;;;4938987;29;20028;-85
2021/12/30 13:12:34;;;;;;;0.38;0.38;;;;;;;;;;4934945;29;20418;-85
2021/12/30 13:14:59;;;;;;;0.22;0.22;;;;;;;;;;4946150;29;20028;-85
2021/12/30 13:17:25;;;;;;;0.30;0.30;;;;;;;;;;4947461;29;20087;-85
2021/12/30 13:19:50;;;;;;;0.35;0.20;;;;;;;;;;4948591;29;20031;-84
2021/12/30 13:22:23;;;;;;;0.25;0.25;;;;;;;;;;4947902;29;20159;-85
2021/12/30 13:24:49;;;;;;;1.13;0.30;;;;;;;;;;4925260;29;20023;-85
2021/12/30 13:27:15;;;;;;;0.30;0.30;;;;;;;;;;4916365;29;20064;-84
2021/12/30 13:29:46;;;;;;;0.38;0.38;;;;;;;;;;4922810;29;20015;-84
2021/12/30 13:32:15;;;;;;;0.30;0.30;;;;;;;;;;4947975;29;20035;-84
2021/12/30 13:35:22;;;;;;;0.20;0.10;;;;;;;;;;4932352;29;20535;-84
2021/12/30 13:37:56;;;;;;;0.30;0.30;;;;;;;;;;4885924;29;20032;-85
2021/12/30 13:40:34;;;;;;;0.50;0.28;;;;;;;;;;4885572;29;20104;-85
2021/12/30 13:43:04;;;;;;;0.32;0.32;;;;;;;;;;4922901;29;20039;-83
2021/12/30 13:45:47;;;;;;;1.10;0.50;;;;;;;;;;4918259;29;20016;-84
2021/12/30 13:48:19;;;;;;;0.20;0.20;;;;;;;;;;4936010;29;20040;-85
2021/12/30 13:50:52;;;;;;;0.20;0.20;;;;;;;;;;4930085;29;20032;-84
2021/12/30 13:53:19;;;;;;;0.20;0.20;;;;;;;;;;4926551;29;20088;-84
2021/12/30 13:55:50;;;;;;;0.28;0.28;;;;;;;;;;4925914;29;20038;-86
2021/12/30 13:58:25;;;;;;;0.30;0.30;;;;;;;;;;4926738;29;20028;-86
2021/12/30 14:01:01;;;;;;;0.65;0.30;;;;;;;;;;4934827;29;20034;-85
2021/12/30 14:03:29;;;;;;;0.52;0.40;;;;;;;;;;4924492;29;20401;-85
2021/12/30 14:06:17;;;;;;;0.30;0.30;;;;;;;;;;4944831;29;20023;-85
2021/12/30 14:08:55;;;;;;;0.30;0.30;;;;;;;;;;4934208;29;20024;-85
2021/12/30 14:11:34;;;;;;;0.30;0.30;;;;;;;;;;4945185;29;20066;-87
2021/12/30 14:14:03;;;;;;;0.85;0.40;;;;;;;;;;4944434;29;20032;-86
2021/12/30 14:16:36;;;;;;;0.30;0.30;;;;;;;;;;4945164;29;20405;-85
2021/12/30 14:19:03;;;;;;;0.82;0.30;;;;;;;;;;4944407;29;20031;-85
2021/12/30 14:21:33;;;;;;;0.75;0.40;;;;;;;;;;4949034;29;20031;-86
2021/12/30 14:24:21;;;;;;;0.30;0.30;;;;;;;;;;4948113;29;20055;-85
2021/12/30 14:26:48;;;;;;;0.40;0.40;;;;;;;;;;4948572;29;20564;-85
2021/12/30 14:29:17;;;;;;;0.85;0.30;;;;;;;;;;4948979;29;20032;-86
2021/12/30 14:32:06;;;;;;;0.77;0.40;;;;;;;;;;4948518;29;20044;-86
2021/12/30 14:34:40;;;;;;;0.28;0.28;;;;;;;;;;4927031;29;20039;-83
2021/12/30 14:37:12;;;;;;;0.32;0.30;;;;;;;;;;4945852;29;20036;-84
2021/12/30 14:39:43;;;;;;;0.40;0.40;;;;;;;;;;4933396;29;20024;-85
2021/12/30 14:42:19;;;;;;;0.93;0.50;;;;;;;;;;4930770;29;20085;-85
2021/12/30 14:45:01;;;;;;;0.40;0.40;;;;;;;;;;4948382;29;20047;-86
2021/12/30 14:47:35;;;;;;;1.55;0.32;;;;;;;;;;4924027;29;20112;-86
2021/12/30 14:50:02;;;;;;;0.70;0.20;;;;;;;;;;4929612;29;20116;-85
2021/12/30 14:52:34;;;;;;;0.68;0.30;;;;;;;;;;4930279;29;20084;-87
2021/12/30 14:54:59;;;;;;;0.50;0.50;;;;;;;;;;4938457;29;20034;-86
2021/12/30 14:57:27;;;;;;;0.40;0.40;;;;;;;;;;4945969;29;20114;-86
2021/12/30 14:59:54;;;;;;;0.95;0.38;;;;;;;;;;4945146;29;20039;-85
2021/12/30 15:02:23;;;;;;;0.85;0.25;;;;;;;;;;4947427;29;20217;-85
2021/12/30 15:04:48;;;;;;;2.97;0.50;;;;;;;;;;4928621;29;20435;-86